Aviation Digital Data Service (ADDS)

Output produced by TAFs form (0345 UTC 19 July 2018)
found at http://www.aviationweather.gov/adds/tafs/
 
KRWF 190252Z 1903/1924 12007KT P6SM BKN100 
     FM190800 12009KT P6SM VCSH OVC060 
     FM191000 13009KT 6SM -RA BKN040 
     FM191600 16012KT 6SM -RA OVC015 
     TEMPO 1916/1918 4SM -TSRA OVC015CB
       
KMSP 190246Z 1903/2006 13007KT P6SM FEW080 BKN250 
     FM190900 12006KT P6SM BKN250 
     FM191200 11006KT P6SM VCSH BKN060 
     FM191400 13012KT 6SM -RA OVC020 
     FM191800 15014G20KT 6SM -SHRA OVC020 
     TEMPO 1918/1922 4SM -TSRA OVC015CB 
     FM192200 15012G20KT P6SM SCT020 OVC040 
     PROB30 1922/1924 4SM -TSRA OVC015CB